Time;durP1;ratioP1;P1;durP2;ratioP2;P2;SDS_P1;SDS_P2;PMS_P1;PMS_P2;Temp;Humidity;BMP_temperature;BMP_pressure;BME280_temperature;BME280_humidity;BME280_pressure;Samples;Min_cycle;Max_cycle;Signal;HPM_P1;HPM_P2
2021/06/30 00:02:17;;;;;;;;;;;;;;;22.06;62.42;99327.28;1627361;87;20119;-86
2021/06/30 00:04:43;;;;;;;;;;;;;;;22.04;62.26;99336.58;1625315;88;20105;-82
2021/06/30 00:07:09;;;;;;;;;;;;;;;22.00;62.19;99338.33;1629685;87;20162;-86
2021/06/30 00:09:35;;;;;;;;;;;;;;;21.97;62.10;99344.64;1639468;87;20217;-85
2021/06/30 00:12:02;;;;;;;;;;;;;;;21.95;62.30;99341.36;1639458;87;20455;-85
2021/06/30 00:14:28;;;;;;;;;;;;;;;21.93;62.41;99348.79;1632902;87;20108;-84
2021/06/30 00:16:54;;;;;;;;;;;;;;;21.85;63.11;99356.55;1616765;88;20497;-86
2021/06/30 00:19:20;;;;;;;;;;;;;;;21.76;63.51;99357.80;1615056;87;20159;-87
2021/06/30 00:21:46;;;;;;;;;;;;;;;21.66;63.88;99356.05;1641471;87;20122;-86
2021/06/30 00:24:12;;;;;;;;;;;;;;;21.58;64.16;99354.37;1625176;87;20109;-84
2021/06/30 00:26:39;;;;;;;;;;;;;;;21.51;64.45;99346.84;1639292;87;20141;-84
2021/06/30 00:29:06;;;;;;;;;;;;;;;21.44;65.13;99346.02;1639808;87;20127;-83
2021/06/30 00:31:32;;;;;;;;;;;;;;;21.33;65.51;99329.98;1637778;86;20102;-83
2021/06/30 00:34:02;;;;;;;;;;;;;;;21.24;65.96;99325.84;1618770;87;20128;-84
2021/06/30 00:36:26;;;;;;;;;;;;;;;21.13;66.47;99317.89;1619402;87;20133;-82
2021/06/30 00:38:52;;;;;;;;;;;;;;;21.04;66.77;99317.77;1640179;86;20412;-84
2021/06/30 00:41:18;;;;;;;;;;;;;;;20.96;67.26;99302.70;1639609;87;20186;-83
2021/06/30 00:43:43;;;;;;;;;;;;;;;20.89;67.55;99292.98;1639584;87;20178;-83
2021/06/30 00:46:09;;;;;;;;;;;;;;;20.80;68.38;99267.71;1639446;87;20186;-83
2021/06/30 00:48:35;;;;;;;;;;;;;;;20.76;69.01;99247.70;1626819;87;20134;-83
2021/06/30 00:51:01;;;;;;;;;;;;;;;20.71;68.98;99242.63;1620008;88;20431;-83
2021/06/30 00:53:27;;;;;;;;;;;;;;;20.63;69.49;99246.31;1628941;87;20121;-83
2021/06/30 00:55:52;;;;;;;;;;;;;;;20.59;69.96;99243.21;1639271;87;20118;-85
2021/06/30 00:58:18;;;;;;;;;;;;;;;20.55;70.52;99231.77;1638227;87;20443;-86
2021/06/30 01:00:44;;;;;;;;;;;;;;;20.52;70.47;99212.89;1639984;87;20102;-85
2021/06/30 01:03:10;;;;;;;;;;;;;;;20.49;71.23;99202.55;1640022;87;20118;-85
2021/06/30 01:05:36;;;;;;;;;;;;;;;20.46;71.62;99183.38;1640085;86;20189;-84
2021/06/30 01:08:04;;;;;;;;;;;;;;;20.41;71.21;99174.62;1639343;87;20137;-85
2021/06/30 01:10:30;;;;;;;;;;;;;;;20.36;71.57;99154.30;1632752;87;20106;-85
2021/06/30 01:12:55;;;;;;;;;;;;;;;20.32;71.97;99126.27;1640766;87;20126;-83
2021/06/30 01:15:21;;;;;;;;;;;;;;;20.24;72.08;99110.41;1634140;87;20144;-83
2021/06/30 01:17:50;;;;;;;;;;;;;;;20.16;72.21;99112.73;1615668;87;20458;-83
2021/06/30 01:20:16;;;;;;;;;;;;;;;20.08;72.65;99087.50;1640594;87;20131;-84
2021/06/30 01:22:45;;;;;;;;;;;;;;;19.98;73.33;99057.63;1626575;87;20132;-85
2021/06/30 01:25:11;;;;;;;;;;;;;;;19.86;73.80;99006.52;1624841;87;20109;-87
2021/06/30 01:27:36;;;;;;;;;;;;;;;19.73;74.11;98963.16;1637959;85;20116;-84
2021/06/30 01:30:05;;;;;;;;;;;;;;;19.63;74.41;98956.86;1625170;88;20418;-85
2021/06/30 01:32:31;;;;;;;;;;;;;;;19.53;74.92;98956.40;1629665;87;20398;-84
2021/06/30 01:34:57;;;;;;;;;;;;;;;19.47;75.10;98957.20;1619623;87;20141;-84
2021/06/30 01:37:22;;;;;;;;;;;;;;;19.39;75.28;98952.05;1621041;87;20188;-85
2021/06/30 01:39:48;;;;;;;;;;;;;;;19.32;75.78;98969.42;1616184;87;20283;-85
2021/06/30 01:42:14;;;;;;;;;;;;;;;19.27;76.37;99118.94;1637970;87;20138;-86
2021/06/30 01:44:40;;;;;;;;;;;;;;;19.18;76.25;99077.33;1642086;87;20435;-87
2021/06/30 01:47:05;;;;;;;;;;;;;;;19.10;76.52;99139.81;1612372;87;20109;-86
2021/06/30 01:49:31;;;;;;;;;;;;;;;19.01;76.56;99146.84;1630903;87;20125;-86
2021/06/30 01:51:57;;;;;;;;;;;;;;;18.90;77.12;99124.97;1623271;87;20155;-86
2021/06/30 01:54:23;;;;;;;;;;;;;;;18.81;77.11;99134.66;1638620;87;20224;-84
2021/06/30 01:56:49;;;;;;;;;;;;;;;18.73;77.08;99133.78;1617177;87;20167;-84
2021/06/30 01:59:15;;;;;;;;;;;;;;;18.69;77.21;99128.48;1614523;87;20148;-84
2021/06/30 02:01:42;;;;;;;;;;;;;;;18.66;77.53;99126.70;1640558;87;20435;-84
2021/06/30 02:04:08;;;;;;;;;;;;;;;18.62;77.70;99126.23;1618827;87;20433;-84
2021/06/30 02:06:45;;;;;;;;;;;;;;;18.57;77.76;99139.36;1629707;87;20137;-83
2021/06/30 02:09:13;;;;;;;;;;;;;;;18.53;77.75;99135.42;1624304;86;20123;-84
2021/06/30 02:11:39;;;;;;;;;;;;;;;18.49;77.94;99135.47;1631487;87;20165;-84
2021/06/30 02:14:06;;;;;;;;;;;;;;;18.45;77.94;99128.86;1639904;87;20120;-83
2021/06/30 02:16:33;;;;;;;;;;;;;;;18.42;78.03;99130.06;1631189;86;20141;-84
2021/06/30 02:19:04;;;;;;;;;;;;;;;18.39;78.25;99133.11;1625172;88;20176;-82
2021/06/30 02:21:26;;;;;;;;;;;;;;;18.34;78.45;99138.22;1632476;87;20460;-82
2021/06/30 02:23:52;;;;;;;;;;;;;;;18.30;78.42;99142.30;1638896;86;20145;-83
2021/06/30 02:26:18;;;;;;;;;;;;;;;18.26;78.74;99141.84;1637455;87;20141;-83
2021/06/30 02:28:43;;;;;;;;;;;;;;;18.22;78.85;99141.06;1639638;87;20538;-82
2021/06/30 02:31:09;;;;;;;;;;;;;;;18.18;78.98;99149.14;1627334;87;20131;-82
2021/06/30 02:33:35;;;;;;;;;;;;;;;18.13;79.21;99149.72;1626995;87;20154;-82
2021/06/30 02:36:01;;;;;;;;;;;;;;;18.10;79.19;99155.43;1629719;86;20399;-82
2021/06/30 02:38:27;;;;;;;;;;;;;;;18.04;79.29;99153.00;1639960;87;20105;-82
2021/06/30 02:40:53;;;;;;;;;;;;;;;18.01;79.40;99160.04;1639058;87;20106;-82
2021/06/30 02:43:19;;;;;;;;;;;;;;;17.98;79.37;99164.93;1619669;87;20116;-82
2021/06/30 02:45:44;;;;;;;;;;;;;;;17.94;79.52;99174.33;1623615;87;20137;-82
2021/06/30 02:48:10;;;;;;;;;;;;;;;17.90;79.62;99177.03;1639051;86;20153;-82
2021/06/30 02:50:36;;;;;;;;;;;;;;;17.88;79.82;99180.41;1639138;87;20119;-82
2021/06/30 02:53:02;;;;;;;;;;;;;;;17.84;79.76;99183.95;1640224;86;20413;-82
2021/06/30 02:55:27;;;;;;;;;;;;;;;17.82;79.89;99180.64;1634834;87;20145;-82
2021/06/30 02:57:53;;;;;;;;;;;;;;;17.79;79.98;99184.50;1639604;87;20106;-83
2021/06/30 03:00:22;;;;;;;;;;;;;;;17.79;79.92;99179.67;1625495;87;20168;-82
2021/06/30 03:02:49;;;;;;;;;;;;;;;17.78;80.07;99174.02;1640552;87;20138;-83
2021/06/30 03:05:14;;;;;;;;;;;;;;;17.77;80.29;99172.38;1637444;87;20482;-82
2021/06/30 03:07:40;;;;;;;;;;;;;;;17.74;80.27;99173.54;1624347;87;20165;-82
2021/06/30 03:10:08;;;;;;;;;;;;;;;17.74;80.45;99174.88;1638887;87;20167;-82
2021/06/30 03:12:35;;;;;;;;;;;;;;;17.74;80.60;99186.88;1634964;86;20114;-82
2021/06/30 03:15:02;;;;;;;;;;;;;;;17.73;80.36;99191.88;1634441;86;20462;-82
2021/06/30 03:17:30;;;;;;;;;;;;;;;17.72;80.51;99188.89;1639456;87;20114;-82
2021/06/30 03:19:56;;;;;;;;;;;;;;;17.72;80.59;99193.41;1638657;86;20126;-82
2021/06/30 03:22:21;;;;;;;;;;;;;;;17.70;80.50;99196.27;1638612;86;20171;-83
2021/06/30 03:24:47;;;;;;;;;;;;;;;17.68;80.59;99182.28;1638242;87;20401;-83
2021/06/30 03:27:13;;;;;;;;;;;;;;;17.67;80.54;99190.45;1625614;88;20108;-82
2021/06/30 03:29:38;;;;;;;;;;;;;;;17.65;80.31;99194.65;1625023;88;20203;-82
2021/06/30 03:32:05;;;;;;;;;;;;;;;17.67;80.64;99193.12;1617044;87;20426;-83
2021/06/30 03:34:30;;;;;;;;;;;;;;;17.67;80.93;99183.30;1629653;87;20202;-82
2021/06/30 03:36:56;;;;;;;;;;;;;;;17.69;80.53;99185.77;1635520;87;20432;-82
2021/06/30 03:39:22;;;;;;;;;;;;;;;17.69;80.76;99190.59;1613976;87;20163;-82
2021/06/30 03:41:47;;;;;;;;;;;;;;;17.70;81.18;99196.27;1617112;87;20156;-83
2021/06/30 03:44:13;;;;;;;;;;;;;;;17.71;81.24;99207.25;1618705;87;20147;-82
2021/06/30 03:46:39;;;;;;;;;;;;;;;17.72;81.46;99213.41;1631289;87;20160;-83
2021/06/30 03:49:05;;;;;;;;;;;;;;;17.73;81.62;99211.88;1639407;87;20102;-83
2021/06/30 03:51:31;;;;;;;;;;;;;;;17.74;81.91;99221.56;1640631;87;20114;-82
2021/06/30 03:53:56;;;;;;;;;;;;;;;17.74;81.87;99218.89;1638733;87;20140;-82
2021/06/30 03:56:25;;;;;;;;;;;;;;;17.75;82.07;99211.71;1631071;87;20140;-83
2021/06/30 03:58:55;;;;;;;;;;;;;;;17.75;82.29;99215.20;1615581;87;20096;-83
2021/06/30 04:01:22;;;;;;;;;;;;;;;17.75;82.37;99215.72;1629354;87;20121;-83
2021/06/30 04:03:55;;;;;;;;;;;;;;;17.76;82.32;99227.55;1640109;86;20141;-83
2021/06/30 04:06:22;;;;;;;;;;;;;;;17.76;82.71;99227.55;1635267;86;20133;-83
2021/06/30 04:08:48;;;;;;;;;;;;;;;17.77;82.89;99233.23;1638660;87;20133;-84
2021/06/30 04:11:14;;;;;;;;;;;;;;;17.76;83.08;99234.22;1638137;87;20408;-83
2021/06/30 04:13:40;;;;;;;;;;;;;;;17.78;83.04;99234.88;1639556;87;20138;-84
2021/06/30 04:16:06;;;;;;;;;;;;;;;17.78;83.23;99244.22;1635260;87;20146;-83
2021/06/30 04:18:32;;;;;;;;;;;;;;;17.78;83.39;99246.89;1639424;87;20435;-83
2021/06/30 04:20:58;;;;;;;;;;;;;;;17.78;83.69;99244.22;1634442;87;20273;-83
2021/06/30 04:23:24;;;;;;;;;;;;;;;17.79;83.99;99256.53;1638374;86;20447;-83
2021/06/30 04:25:49;;;;;;;;;;;;;;;17.80;84.16;99256.03;1627379;87;20165;-83
2021/06/30 04:28:15;;;;;;;;;;;;;;;17.82;84.38;99260.69;1630466;87;20211;-83
2021/06/30 04:30:42;;;;;;;;;;;;;;;17.83;84.34;99260.17;1614915;87;20383;-82
2021/06/30 04:33:09;;;;;;;;;;;;;;;17.83;84.37;99246.83;1612584;89;20136;-83
2021/06/30 04:35:34;;;;;;;;;;;;;;;17.82;84.86;99246.01;1635614;87;20145;-83
2021/06/30 04:38:01;;;;;;;;;;;;;;;17.81;84.56;99243.03;1640260;86;20473;-82
2021/06/30 04:40:28;;;;;;;;;;;;;;;17.81;84.69;99243.85;1639745;86;20288;-81
2021/06/30 04:42:53;;;;;;;;;;;;;;;17.83;84.98;99252.99;1646764;86;20476;-83
2021/06/30 04:45:19;;;;;;;;;;;;;;;17.83;84.87;99247.66;1654768;87;20154;-83
2021/06/30 04:47:45;;;;;;;;;;;;;;;17.83;84.86;99250.32;1654650;87;20175;-83
2021/06/30 04:50:11;;;;;;;;;;;;;;;17.85;85.08;99251.49;1634617;87;20132;-83
2021/06/30 04:52:37;;;;;;;;;;;;;;;17.85;85.25;99244.82;1615430;88;20318;-84
2021/06/30 04:55:04;;;;;;;;;;;;;;;17.86;85.70;99239.80;1614141;87;20951;-85
2021/06/30 04:57:30;;;;;;;;;;;;;;;17.86;85.37;99239.28;1638038;86;20138;-84
2021/06/30 04:59:55;;;;;;;;;;;;;;;17.87;85.37;99253.45;1640725;86;20144;-84
2021/06/30 05:02:21;;;;;;;;;;;;;;;17.87;85.60;99252.12;1613449;86;20113;-83
2021/06/30 05:04:47;;;;;;;;;;;;;;;17.88;85.57;99255.95;1612194;88;20144;-83
2021/06/30 05:07:12;;;;;;;;;;;;;;;17.88;85.65;99254.61;1636946;87;20125;-84
2021/06/30 05:09:38;;;;;;;;;;;;;;;17.91;86.01;99252.91;1640744;87;20102;-84
2021/06/30 05:12:05;;;;;;;;;;;;;;;17.92;85.96;99246.55;1639768;87;20284;-83
2021/06/30 05:14:31;;;;;;;;;;;;;;;17.95;86.20;99252.86;1641142;87;20113;-83
2021/06/30 05:16:57;;;;;;;;;;;;;;;17.98;86.36;99246.33;1639036;87;20392;-84
2021/06/30 05:19:23;;;;;;;;;;;;;;;18.02;86.29;99256.44;1639091;86;20125;-84
2021/06/30 05:21:50;;;;;;;;;;;;;;;18.05;86.53;99263.25;1620578;87;20140;-83
2021/06/30 05:24:17;;;;;;;;;;;;;;;18.09;86.43;99269.05;1613360;87;20127;-84
2021/06/30 05:26:43;;;;;;;;;;;;;;;18.10;86.45;99274.22;1595441;89;20116;-83
2021/06/30 05:29:08;;;;;;;;;;;;;;;18.12;86.39;99281.52;1612062;89;20430;-83
2021/06/30 05:31:35;;;;;;;;;;;;;;;18.14;86.52;99272.83;1625353;87;20169;-82
2021/06/30 05:34:00;;;;;;;;;;;;;;;18.16;86.42;99284.13;1612703;88;20152;-83
2021/06/30 05:36:26;;;;;;;;;;;;;;;18.21;86.72;99271.58;1612294;87;20117;-83
2021/06/30 05:38:52;;;;;;;;;;;;;;;18.25;86.77;99268.84;1613132;87;20145;-83
2021/06/30 05:41:18;;;;;;;;;;;;;;;18.31;86.63;99271.28;1612968;87;20105;-83
2021/06/30 05:43:43;;;;;;;;;;;;;;;18.34;86.66;99273.08;1639439;87;20102;-81
2021/06/30 05:46:09;;;;;;;;;;;;;;;18.38;86.49;99270.86;1639117;87;20158;-81
2021/06/30 05:48:35;;;;;;;;;;;;;;;18.41;86.38;99266.48;1640626;87;20138;-82
2021/06/30 05:51:01;;;;;;;;;;;;;;;18.43;86.47;99277.30;1641050;87;20415;-81
2021/06/30 05:53:26;;;;;;;;;;;;;;;18.45;86.55;99271.24;1614438;87;20180;-82
2021/06/30 05:55:52;;;;;;;;;;;;;;;18.47;86.56;99272.41;1612784;88;20137;-81
2021/06/30 05:58:18;;;;;;;;;;;;;;;18.49;86.56;99265.87;1614984;87;20409;-81
2021/06/30 06:00:44;;;;;;;;;;;;;;;18.52;86.45;99265.98;1611896;87;20184;-81
2021/06/30 06:03:10;;;;;;;;;;;;;;;18.54;86.36;99268.48;1612089;87;20174;-81
2021/06/30 06:05:37;;;;;;;;;;;;;;;18.55;86.44;99265.60;1617079;87;20147;-82
2021/06/30 06:08:03;;;;;;;;;;;;;;;18.57;86.59;99260.09;1638113;86;20444;-82
2021/06/30 06:10:29;;;;;;;;;;;;;;;18.60;86.59;99263.72;1640426;86;20137;-83
2021/06/30 06:12:54;;;;;;;;;;;;;;;18.64;86.47;99273.00;1620901;86;20406;-82
2021/06/30 06:15:20;;;;;;;;;;;;;;;18.67;86.29;99272.62;1613768;88;20116;-82
2021/06/30 06:17:46;;;;;;;;;;;;;;;18.69;86.35;99269.23;1610759;89;20131;-82
2021/06/30 06:20:13;;;;;;;;;;;;;;;18.73;86.48;99263.38;1612792;87;20159;-82
2021/06/30 06:22:39;;;;;;;;;;;;;;;18.78;86.27;99266.80;1625949;87;20433;-82
2021/06/30 06:25:06;;;;;;;;;;;;;;;18.82;86.28;99269.92;1641084;87;20105;-82
2021/06/30 06:27:32;;;;;;;;;;;;;;;18.86;86.16;99272.04;1640108;86;20431;-83
2021/06/30 06:29:59;;;;;;;;;;;;;;;18.91;86.10;99277.63;1639680;87;20101;-84
2021/06/30 06:32:24;;;;;;;;;;;;;;;18.98;86.20;99289.72;1639781;87;20118;-83
2021/06/30 06:34:51;;;;;;;;;;;;;;;19.03;86.27;99292.66;1640292;87;20117;-84
2021/06/30 06:37:17;;;;;;;;;;;;;;;19.09;86.30;99285.73;1629525;86;20163;-83
2021/06/30 06:39:44;;;;;;;;;;;;;;;19.08;86.19;99280.87;1628626;87;20126;-83
2021/06/30 06:42:12;;;;;;;;;;;;;;;19.20;86.29;99285.20;1617116;87;20168;-83
2021/06/30 06:44:40;;;;;;;;;;;;;;;19.27;86.22;99282.07;1634890;87;20145;-82
2021/06/30 06:47:05;;;;;;;;;;;;;;;19.34;85.83;99283.46;1638355;87;20102;-83
2021/06/30 06:49:31;;;;;;;;;;;;;;;19.43;86.38;99289.00;1633109;87;20140;-82
2021/06/30 06:51:59;;;;;;;;;;;;;;;19.55;86.45;99276.75;1639207;87;20530;-82
2021/06/30 06:54:24;;;;;;;;;;;;;;;19.67;85.82;99279.21;1634530;87;20119;-82
2021/06/30 06:56:50;;;;;;;;;;;;;;;19.77;85.09;99280.20;1638015;87;20140;-82
2021/06/30 06:59:16;;;;;;;;;;;;;;;19.85;85.52;99290.77;1638167;87;20432;-82
2021/06/30 07:01:42;;;;;;;;;;;;;;;19.94;84.40;99291.45;1640005;87;20090;-82
2021/06/30 07:04:07;;;;;;;;;;;;;;;19.97;83.81;99289.70;1640531;87;20134;-82
2021/06/30 07:06:33;;;;;;;;;;;;;;;19.96;83.62;99289.91;1639734;87;20450;-82
2021/06/30 07:08:59;;;;;;;;;;;;;;;19.98;83.67;99299.41;1639375;86;20151;-82
2021/06/30 07:11:25;;;;;;;;;;;;;;;20.02;83.69;99303.33;1640679;87;20131;-82
2021/06/30 07:13:51;;;;;;;;;;;;;;;20.05;83.64;99303.45;1621269;87;20112;-83
2021/06/30 07:16:17;;;;;;;;;;;;;;;20.05;83.22;99306.95;1612711;89;20423;-83
2021/06/30 07:18:43;;;;;;;;;;;;;;;20.05;82.77;99312.31;1611664;88;20176;-82
2021/06/30 07:21:26;;;;;;;;;;;;;;;20.04;82.86;99314.68;1611639;89;20139;-83
2021/06/30 07:23:51;;;;;;;;;;;;;;;20.05;82.71;99308.30;1542445;92;20132;-88
2021/06/30 07:26:17;;;;;;;;;;;;;;;20.07;82.33;99312.09;1604611;89;20108;-88
2021/06/30 07:28:44;;;;;;;;;;;;;;;20.06;81.73;99312.61;1613132;89;20133;-86
2021/06/30 07:31:10;;;;;;;;;;;;;;;20.07;82.08;99316.97;1612577;88;20164;-85
2021/06/30 07:33:40;;;;;;;;;;;;;;;20.10;81.75;99319.25;1612749;89;20141;-85
2021/06/30 07:36:07;;;;;;;;;;;;;;;20.12;81.66;99318.52;1613556;88;20117;-87
2021/06/30 07:38:33;;;;;;;;;;;;;;;20.13;81.12;99315.33;1612392;88;20145;-87
2021/06/30 07:40:59;;;;;;;;;;;;;;;20.17;81.28;99322.45;1611507;89;20139;-89
2021/06/30 07:43:24;;;;;;;;;;;;;;;20.20;81.19;99320.20;1611650;89;20124;-88
2021/06/30 07:45:50;;;;;;;;;;;;;;;20.25;81.19;99321.79;1633199;86;20174;-86
2021/06/30 07:48:16;;;;;;;;;;;;;;;20.31;81.14;99326.36;1655117;87;20551;-90
2021/06/30 07:50:42;;;;;;;;;;;;;;;20.37;81.54;99324.23;1655078;87;20099;-90
2021/06/30 07:53:07;;;;;;;;;;;;;;;20.44;81.40;99324.26;1654927;87;20102;-89
2021/06/30 07:55:33;;;;;;;;;;;;;;;20.49;80.95;99325.81;1655012;87;20114;-89
2021/06/30 07:57:59;;;;;;;;;;;;;;;20.52;80.80;99329.46;1654980;87;20130;-89
2021/06/30 08:00:25;;;;;;;;;;;;;;;20.55;80.11;99333.60;1655072;87;20146;-90
2021/06/30 08:02:50;;;;;;;;;;;;;;;20.61;80.44;99334.97;1646190;86;20145;-87
2021/06/30 08:05:16;;;;;;;;;;;;;;;20.69;80.74;99333.13;1654025;86;20201;-86
2021/06/30 08:07:42;;;;;;;;;;;;;;;20.79;79.89;99333.06;1656238;87;20126;-87
2021/06/30 08:10:09;;;;;;;;;;;;;;;20.89;79.84;99336.70;1656596;86;20146;-88
2021/06/30 08:12:35;;;;;;;;;;;;;;;20.99;79.12;99330.45;1656257;87;20181;-88
2021/06/30 08:15:01;;;;;;;;;;;;;;;21.12;78.53;99333.66;1656660;87;20181;-88
2021/06/30 08:17:26;;;;;;;;;;;;;;;21.21;79.14;99334.30;1656581;86;20137;-87
2021/06/30 08:19:52;;;;;;;;;;;;;;;21.28;79.23;99331.10;1656546;87;20142;-87
2021/06/30 08:22:18;;;;;;;;;;;;;;;21.34;78.55;99336.17;1666963;86;20163;-89
2021/06/30 08:24:44;;;;;;;;;;;;;;;21.34;77.90;99338.34;1667898;85;20171;-88
2021/06/30 08:27:12;;;;;;;;;;;;;;;21.35;77.93;99348.58;1666530;86;20164;-85
2021/06/30 08:29:39;;;;;;;;;;;;;;;21.31;77.61;99353.50;1665408;85;20452;-84
2021/06/30 08:32:05;;;;;;;;;;;;;;;21.28;77.25;99347.20;1651270;86;20154;-89
2021/06/30 08:34:31;;;;;;;;;;;;;;;21.31;77.78;99355.66;1639566;87;20198;-87
2021/06/30 08:37:00;;;;;;;;;;;;;;;21.38;77.53;99348.17;1640638;87;20138;-86
2021/06/30 08:39:25;;;;;;;;;;;;;;;21.40;77.18;99341.58;1641931;87;20106;-86
2021/06/30 08:41:51;;;;;;;;;;;;;;;21.42;77.21;99348.06;1640383;87;20128;-87
2021/06/30 08:44:17;;;;;;;;;;;;;;;21.43;77.10;99352.42;1640780;87;20173;-86
2021/06/30 08:46:44;;;;;;;;;;;;;;;21.44;76.13;99352.20;1638359;87;20396;-85
2021/06/30 08:49:10;;;;;;;;;;;;;;;21.43;76.00;99351.91;1637931;87;20161;-88
2021/06/30 08:51:37;;;;;;;;;;;;;;;21.46;76.29;99348.81;1631457;87;20102;-86
2021/06/30 08:54:06;;;;;;;;;;;;;;;21.56;76.56;99349.75;1640551;87;20133;-90
2021/06/30 08:56:33;;;;;;;;;;;;;;;21.72;76.79;99354.70;1640176;86;20164;-86
2021/06/30 08:58:59;;;;;;;;;;;;;;;21.89;76.27;99358.30;1640165;86;20114;-85
2021/06/30 09:01:26;;;;;;;;;;;;;;;22.07;75.87;99362.50;1641340;86;20107;-85
2021/06/30 09:03:54;;;;;;;;;;;;;;;22.18;75.40;99355.71;1639098;86;20137;-85
2021/06/30 09:06:21;;;;;;;;;;;;;;;22.26;75.24;99360.02;1640694;86;20173;-86
2021/06/30 09:08:50;;;;;;;;;;;;;;;22.34;74.68;99363.32;1637319;86;20153;-89
2021/06/30 09:11:21;;;;;;;;;;;;;;;22.37;74.72;99362.87;1633516;86;20197;-89
2021/06/30 09:13:53;;;;;;;;;;;;;;;22.36;74.32;99367.94;1647805;86;20160;-86
2021/06/30 09:16:19;;;;;;;;;;;;;;;22.34;74.31;99372.72;1633635;86;20143;-86
2021/06/30 09:18:48;;;;;;;;;;;;;;;22.30;73.69;99376.84;1628958;86;20138;-86
2021/06/30 09:21:30;;;;;;;;;;;;;;;22.24;73.38;99369.13;1631965;86;20424;-87
2021/06/30 09:24:05;;;;;;;;;;;;;;;22.16;72.62;99372.02;1640995;86;20141;-90
2021/06/30 09:26:33;;;;;;;;;;;;;;;22.08;73.05;99377.59;1656068;86;20530;-89
2021/06/30 09:29:09;;;;;;;;;;;;;;;22.04;73.00;99378.20;1627382;86;20135;-89
2021/06/30 09:31:37;;;;;;;;;;;;;;;22.06;73.51;99374.28;1591187;89;20138;-87
2021/06/30 09:34:03;;;;;;;;;;;;;;;22.17;73.86;99376.87;1637324;86;20144;-89
2021/06/30 09:36:33;;;;;;;;;;;;;;;22.36;75.70;99372.50;1615658;87;20296;-84
2021/06/30 09:39:09;;;;;;;;;;;;;;;22.58;73.91;99370.38;1620640;87;20143;-88
2021/06/30 09:41:36;;;;;;;;;;;;;;;22.75;72.90;99373.41;1638724;86;20468;-87
2021/06/30 09:44:07;;;;;;;;;;;;;;;22.85;72.37;99365.17;1651369;86;20137;-88
2021/06/30 09:46:33;;;;;;;;;;;;;;;22.91;72.39;99368.36;1638967;86;20251;-85
2021/06/30 09:49:01;;;;;;;;;;;;;;;22.96;72.11;99365.04;1637806;86;20145;-88
2021/06/30 09:51:27;;;;;;;;;;;;;;;22.98;71.86;99367.53;1637644;86;20148;-88
2021/06/30 09:54:05;;;;;;;;;;;;;;;23.02;72.08;99373.59;1632707;86;20275;-88
2021/06/30 09:56:38;;;;;;;;;;;;;;;23.10;71.35;99367.13;1612766;89;20136;-88
2021/06/30 09:59:03;;;;;;;;;;;;;;;23.22;71.65;99371.31;1659006;86;20156;-87
2021/06/30 10:01:29;;;;;;;;;;;;;;;23.31;71.19;99372.19;1636570;86;20166;-85
2021/06/30 10:03:55;;;;;;;;;;;;;;;23.36;70.22;99376.41;1610371;87;20431;-88
2021/06/30 10:06:29;;;;;;;;;;;;;;;23.33;70.18;99376.84;1636360;86;20130;-85
2021/06/30 10:08:56;;;;;;;;;;;;;;;23.29;69.97;99377.48;1635625;86;20111;-85
2021/06/30 10:11:23;;;;;;;;;;;;;;;23.31;69.70;99379.44;1652649;86;20145;-87
2021/06/30 10:13:49;;;;;;;;;;;;;;;23.32;70.47;99381.08;1636467;86;20177;-87
2021/06/30 10:16:17;;;;;;;;;;;;;;;23.35;70.52;99384.16;1633759;86;20165;-87
2021/06/30 10:18:43;;;;;;;;;;;;;;;23.38;69.92;99382.38;1648489;86;20482;-86
2021/06/30 10:21:10;;;;;;;;;;;;;;;23.43;69.14;99382.24;1639593;86;20117;-84
2021/06/30 10:23:38;;;;;;;;;;;;;;;23.56;69.66;99384.84;1637412;86;20150;-86
2021/06/30 10:26:04;;;;;;;;;;;;;;;23.71;69.34;99378.66;1636590;86;20156;-85
2021/06/30 10:28:30;;;;;;;;;;;;;;;23.85;68.76;99382.05;1651624;86;20158;-85
2021/06/30 10:30:58;;;;;;;;;;;;;;;23.95;68.47;99372.94;1640457;86;20401;-88
2021/06/30 10:33:37;;;;;;;;;;;;;;;24.08;68.66;99374.69;1645565;86;20454;-86
2021/06/30 10:36:02;;;;;;;;;;;;;;;24.25;67.94;99375.78;1637970;86;20194;-85
2021/06/30 10:38:50;;;;;;;;;;;;;;;24.30;66.47;99375.92;1643167;86;20197;-86
2021/06/30 10:41:40;;;;;;;;;;;;;;;24.32;66.12;99373.83;1650509;86;20402;-84
2021/06/30 10:44:17;;;;;;;;;;;;;;;24.36;66.08;99372.86;1643419;86;20471;-85
2021/06/30 10:46:43;;;;;;;;;;;;;;;24.37;65.65;99389.33;1645089;86;20166;-84
2021/06/30 10:49:21;;;;;;;;;;;;;;;24.36;66.05;99382.83;1638942;85;20162;-87
2021/06/30 10:51:49;;;;;;;;;;;;;;;24.30;66.24;99371.05;1640105;86;20145;-85
2021/06/30 10:54:40;;;;;;;;;;;;;;;24.31;65.33;99380.78;1645952;86;20184;-85
2021/06/30 10:57:28;;;;;;;;;;;;;;;24.25;65.13;99386.56;1648796;86;20149;-84
2021/06/30 11:00:08;;;;;;;;;;;;;;;24.08;65.42;99379.55;1644716;86;20171;-84
2021/06/30 11:02:35;;;;;;;;;;;;;;;23.92;65.47;99388.73;1633061;86;20161;-85
2021/06/30 11:05:16;;;;;;;;;;;;;;;23.80;66.00;99392.68;1655181;87;20618;-83
2021/06/30 11:07:42;;;;;;;;;;;;;;;23.76;65.70;99390.13;1640222;86;20146;-84
2021/06/30 11:10:21;;;;;;;;;;;;;;;23.68;65.40;99387.17;1638483;87;20160;-86
2021/06/30 11:12:54;;;;;;;;;;;;;;;23.61;65.76;99390.41;1604022;86;20133;-84
2021/06/30 11:15:39;;;;;;;;;;;;;;;23.49;65.41;99392.14;1652337;86;20195;-84
2021/06/30 11:18:15;;;;;;;;;;;;;;;23.34;65.71;99387.09;1647319;86;20308;-84
2021/06/30 11:20:49;;;;;;;;;;;;;;;23.22;65.95;99395.02;1642975;85;20164;-85
2021/06/30 11:23:24;;;;;;;;;;;;;;;23.11;66.11;99392.49;1638181;87;20138;-84
2021/06/30 11:25:54;;;;;;;;;;;;;;;23.03;66.24;99390.03;1640029;86;20202;-86
2021/06/30 11:28:31;;;;;;;;;;;;;;;22.92;66.29;99399.58;1645390;86;20458;-84
2021/06/30 11:30:58;;;;;;;;;;;;;;;22.83;66.43;99394.14;1638588;86;20155;-85
2021/06/30 11:33:24;;;;;;;;;;;;;;;22.78;66.98;99385.90;1643586;86;20128;-86
2021/06/30 11:35:50;;;;;;;;;;;;;;;22.83;67.03;99383.37;1640954;86;20138;-84
2021/06/30 11:38:21;;;;;;;;;;;;;;;22.89;66.61;99395.16;1640946;86;20146;-86
2021/06/30 11:40:54;;;;;;;;;;;;;;;22.89;66.51;99388.43;1645638;86;20153;-88
2021/06/30 11:43:24;;;;;;;;;;;;;;;22.89;66.95;99391.94;1638225;86;20118;-85
2021/06/30 11:45:54;;;;;;;;;;;;;;;22.84;66.17;99401.19;1643037;86;20554;-84
2021/06/30 11:48:20;;;;;;;;;;;;;;;22.79;65.89;99396.95;1639049;86;20314;-84
2021/06/30 11:50:58;;;;;;;;;;;;;;;22.76;65.96;99401.94;1643910;86;20122;-84
2021/06/30 11:53:35;;;;;;;;;;;;;;;22.73;66.16;99399.67;1639467;86;20539;-86
2021/06/30 11:56:02;;;;;;;;;;;;;;;22.73;65.88;99403.70;1631205;86;20140;-85
2021/06/30 11:58:42;;;;;;;;;;;;;;;22.73;66.20;99406.39;1634884;86;20185;-85
2021/06/30 12:01:23;;;;;;;;;;;;;;;22.77;66.62;99408.46;1640950;86;20121;-87
2021/06/30 12:03:51;;;;;;;;;;;;;;;22.89;66.25;99409.95;1637433;86;20194;-83
2021/06/30 12:06:26;;;;;;;;;;;;;;;23.02;65.92;99405.06;1638115;85;20174;-86
2021/06/30 12:09:13;;;;;;;;;;;;;;;23.17;65.94;99410.47;1638655;86;20135;-85
2021/06/30 12:11:42;;;;;;;;;;;;;;;23.37;65.53;99402.80;1640631;86;20148;-85
2021/06/30 12:14:20;;;;;;;;;;;;;;;23.52;65.88;99396.57;1643853;86;20169;-84
2021/06/30 12:16:56;;;;;;;;;;;;;;;23.70;65.32;99404.47;1645247;86;20436;-86
2021/06/30 12:19:37;;;;;;;;;;;;;;;23.78;64.30;99403.66;1650920;86;20432;-85
2021/06/30 12:22:20;;;;;;;;;;;;;;;23.92;64.59;99406.23;1629731;86;20148;-84
2021/06/30 12:24:58;;;;;;;;;;;;;;;24.03;64.24;99406.88;1646178;86;20134;-85
2021/06/30 12:27:39;;;;;;;;;;;;;;;24.15;64.32;99415.05;1628775;86;20138;-87
2021/06/30 12:30:05;;;;;;;;;;;;;;;24.27;63.31;99414.10;1636802;86;20214;-88
2021/06/30 12:32:31;;;;;;;;;;;;;;;24.29;62.92;99416.06;1632876;86;20165;-86
2021/06/30 12:34:59;;;;;;;;;;;;;;;24.38;64.06;99412.53;1647662;87;20134;-88
2021/06/30 12:37:26;;;;;;;;;;;;;;;24.49;63.46;99413.72;1643539;86;20165;-88
2021/06/30 12:40:00;;;;;;;;;;;;;;;24.58;63.41;99401.59;1651437;86;20443;-88
2021/06/30 12:42:54;;;;;;;;;;;;;;;24.62;62.75;99402.78;1643906;86;20134;-88
2021/06/30 12:45:39;;;;;;;;;;;;;;;24.64;62.36;99406.06;1639554;86;20166;-87
2021/06/30 12:48:10;;;;;;;;;;;;;;;24.66;62.48;99407.20;1637947;86;20157;-88
2021/06/30 12:50:39;;;;;;;;;;;;;;;24.63;61.97;99421.95;1645784;86;20131;-87
2021/06/30 12:53:07;;;;;;;;;;;;;;;24.56;62.15;99407.72;1637385;86;20136;-87